createdAt,value
2022-10-14T00:01:24.697Z,9.95
2022-10-14T00:03:57.051Z,12.45
2022-10-14T00:06:28.630Z,10.70
2022-10-14T00:09:00.918Z,9.77
2022-10-14T00:11:37.142Z,7.70
2022-10-14T00:14:15.809Z,9.88
2022-10-14T00:16:45.366Z,9.90
2022-10-14T00:19:12.957Z,9.10
2022-10-14T00:21:44.713Z,10.50
2022-10-14T00:24:13.135Z,8.77
2022-10-14T00:26:45.059Z,9.90
2022-10-14T00:31:44.854Z,9.75
2022-10-14T00:34:15.990Z,10.73
2022-10-14T00:36:43.307Z,10.00
2022-10-14T00:39:12.460Z,8.43
2022-10-14T00:41:39.821Z,7.82
2022-10-14T00:44:17.927Z,9.80
2022-10-14T00:46:48.903Z,9.40
2022-10-14T00:49:40.969Z,6.63
2022-10-14T00:52:19.297Z,9.27
2022-10-14T00:54:58.155Z,9.02
2022-10-14T00:57:30.235Z,8.90
2022-10-14T01:00:02.487Z,9.02
2022-10-14T01:02:32.107Z,8.80
2022-10-14T01:05:02.521Z,8.77
2022-10-14T01:08:00.628Z,8.60
2022-10-14T01:11:02.021Z,7.18
2022-10-14T01:13:31.581Z,9.55
2022-10-14T01:16:27.679Z,9.40
2022-10-14T01:19:03.305Z,9.30
2022-10-14T01:22:21.387Z,8.60
2022-10-14T01:25:04.864Z,8.77
2022-10-14T01:27:59.483Z,8.48
2022-10-14T01:30:34.767Z,10.70
2022-10-14T01:33:08.209Z,12.02
2022-10-14T01:35:50.169Z,11.70
2022-10-14T01:38:40.708Z,10.30
2022-10-14T01:41:29.335Z,12.20
2022-10-14T01:44:05.466Z,11.75
2022-10-14T01:46:36.637Z,10.60
2022-10-14T01:49:11.941Z,6.80
2022-10-14T01:51:44.279Z,11.15
2022-10-14T01:54:15.373Z,9.93
2022-10-14T01:56:44.644Z,10.43
2022-10-14T01:59:15.902Z,7.18
2022-10-14T02:01:42.631Z,8.60
2022-10-14T02:04:21.893Z,8.45
2022-10-14T02:07:33.616Z,8.90
2022-10-14T02:10:18.645Z,9.50
2022-10-14T02:13:30.443Z,8.32
2022-10-14T02:16:06.623Z,9.13
2022-10-14T02:18:40.289Z,9.80
2022-10-14T02:21:17.216Z,6.68
2022-10-14T02:23:50.023Z,8.75
2022-10-14T02:26:23.374Z,8.70
2022-10-14T02:28:55.210Z,8.25
2022-10-14T02:33:59.016Z,7.90
2022-10-14T02:36:29.678Z,9.60
2022-10-14T02:39:00.854Z,8.30
2022-10-14T02:41:34.712Z,9.87
2022-10-14T02:44:01.682Z,9.30
2022-10-14T02:46:31.064Z,8.07
2022-10-14T02:48:57.798Z,8.43
2022-10-14T02:51:24.513Z,9.68
2022-10-14T02:53:57.496Z,8.98
2022-10-14T02:56:24.565Z,9.18
2022-10-14T02:58:53.744Z,9.00
2022-10-14T03:01:22.903Z,9.15
2022-10-14T03:03:49.577Z,9.05
2022-10-14T03:06:18.755Z,7.90
2022-10-14T03:08:47.700Z,7.90
2022-10-14T03:11:14.413Z,8.15
2022-10-14T03:13:43.506Z,8.63
2022-10-14T03:16:10.215Z,8.35
2022-10-14T03:18:39.341Z,7.88
2022-10-14T03:21:08.154Z,9.73
2022-10-14T03:23:37.371Z,8.40
2022-10-14T03:26:04.071Z,9.00
2022-10-14T03:28:35.446Z,10.77
2022-10-14T03:31:02.190Z,9.25
2022-10-14T03:33:35.749Z,8.65
2022-10-14T03:36:02.646Z,9.57
2022-10-14T03:38:29.359Z,9.00
2022-10-14T03:40:58.446Z,9.35
2022-10-14T03:43:25.125Z,9.10
2022-10-14T03:45:51.877Z,10.32
2022-10-14T03:48:21.034Z,9.07
2022-10-14T03:50:50.197Z,8.68
2022-10-14T03:53:16.949Z,7.32
2022-10-14T03:55:48.545Z,6.72
2022-10-14T03:58:17.402Z,9.82
2022-10-14T04:00:46.773Z,9.30
2022-10-14T04:03:13.590Z,9.00
2022-10-14T04:05:42.816Z,9.02
2022-10-14T04:08:09.736Z,7.78
2022-10-14T04:10:36.407Z,8.10
2022-10-14T04:13:05.578Z,9.40
2022-10-14T04:15:37.230Z,11.10
2022-10-14T04:18:04.085Z,16.65
2022-10-14T04:20:35.730Z,11.52
2022-10-14T04:23:04.954Z,10.23
2022-10-14T04:25:31.693Z,10.75
2022-10-14T04:28:00.538Z,8.05
2022-10-14T04:30:29.757Z,12.05
2022-10-14T04:32:56.465Z,8.43
2022-10-14T04:35:25.366Z,11.40
2022-10-14T04:37:52.111Z,9.68
2022-10-14T04:40:20.520Z,12.98
2022-10-14T04:42:51.596Z,16.30
2022-10-14T04:45:18.275Z,9.17
2022-10-14T04:47:48.451Z,12.65
2022-10-14T04:50:18.427Z,11.93
2022-10-14T04:52:47.247Z,11.60
2022-10-14T04:55:16.123Z,11.07
2022-10-14T04:57:45.295Z,12.88
2022-10-14T05:00:17.966Z,12.45
2022-10-14T05:02:44.668Z,10.40
2022-10-14T05:05:11.378Z,12.30
2022-10-14T05:07:40.182Z,12.38
2022-10-14T05:10:10.514Z,11.50
2022-10-14T05:12:38.702Z,12.35
2022-10-14T05:15:06.514Z,10.48
2022-10-14T05:17:33.585Z,11.07
2022-10-14T05:20:00.447Z,11.32
2022-10-14T05:22:28.023Z,9.85
2022-10-14T05:24:59.195Z,11.70
2022-10-14T05:27:25.980Z,10.30
2022-10-14T05:29:52.685Z,11.65
2022-10-14T05:32:23.356Z,10.23
2022-10-14T05:34:52.435Z,12.40
2022-10-14T05:37:19.179Z,9.95
2022-10-14T05:39:48.003Z,10.95
2022-10-14T05:42:14.714Z,16.83
2022-10-14T05:44:43.800Z,10.60
2022-10-14T05:47:10.642Z,11.00
2022-10-14T05:49:39.882Z,10.18
2022-10-14T05:52:09.072Z,9.48
2022-10-14T05:54:37.950Z,10.35
2022-10-14T05:57:05.040Z,12.10
2022-10-14T05:59:34.762Z,10.77
2022-10-14T06:02:04.108Z,10.60
2022-10-14T06:04:30.788Z,12.25
2022-10-14T06:06:58.996Z,12.13
2022-10-14T06:09:28.123Z,10.88
2022-10-14T06:12:02.056Z,9.60
2022-10-14T06:14:30.954Z,10.98
2022-10-14T06:17:02.313Z,10.82
2022-10-14T06:19:35.376Z,10.00
2022-10-14T06:22:06.793Z,10.27
2022-10-14T06:24:38.153Z,9.40
2022-10-14T06:27:07.643Z,11.13
2022-10-14T06:29:39.499Z,10.15
2022-10-14T06:32:07.794Z,12.18
2022-10-14T06:34:36.965Z,13.45
2022-10-14T06:37:03.829Z,13.55
2022-10-14T06:39:30.527Z,11.15
2022-10-14T06:41:59.816Z,10.30
2022-10-14T06:44:26.502Z,9.82
2022-10-14T06:46:53.226Z,7.30
2022-10-14T06:49:20.050Z,7.82
2022-10-14T06:51:48.980Z,8.95
2022-10-14T06:54:17.021Z,8.75
2022-10-14T06:56:43.744Z,7.57
2022-10-14T06:59:14.960Z,9.23
2022-10-14T07:01:41.748Z,7.00
2022-10-14T07:04:08.493Z,7.47
2022-10-14T07:06:38.968Z,8.88
2022-10-14T07:09:05.708Z,8.38
2022-10-14T07:11:34.822Z,7.28
2022-10-14T07:14:01.819Z,9.15
2022-10-14T07:16:30.726Z,7.72
2022-10-14T07:19:02.355Z,6.65
2022-10-14T07:21:28.997Z,9.20
2022-10-14T07:23:55.700Z,8.23
2022-10-14T07:26:24.545Z,7.80
2022-10-14T07:28:51.296Z,7.65
2022-10-14T07:31:20.519Z,6.97
2022-10-14T07:33:49.349Z,7.10
2022-10-14T07:36:21.514Z,7.05
2022-10-14T07:38:49.898Z,7.10
2022-10-14T07:41:22.742Z,6.95
2022-10-14T07:43:54.211Z,6.57
2022-10-14T07:46:43.128Z,7.70
2022-10-14T07:49:19.237Z,6.72
2022-10-14T07:51:49.787Z,5.85
2022-10-14T07:54:22.917Z,6.60
2022-10-14T07:56:49.993Z,7.00
2022-10-14T07:59:22.965Z,6.20
2022-10-14T08:01:51.508Z,7.00
2022-10-14T08:04:22.330Z,6.63
2022-10-14T08:06:54.403Z,6.13
2022-10-14T08:09:21.466Z,7.55
2022-10-14T08:11:48.597Z,7.28
2022-10-14T08:14:17.558Z,7.85
2022-10-14T08:16:47.326Z,6.00
2022-10-14T08:19:14.983Z,6.30
2022-10-14T08:21:45.165Z,5.78
2022-10-14T08:24:12.097Z,5.53
2022-10-14T08:26:40.759Z,5.70
2022-10-14T08:29:10.829Z,5.15
2022-10-14T08:31:37.778Z,5.32
2022-10-14T08:34:11.079Z,5.05
2022-10-14T08:36:37.894Z,5.90
2022-10-14T08:39:07.220Z,6.50
2022-10-14T08:41:52.121Z,5.07
2022-10-14T08:44:42.549Z,5.57
2022-10-14T08:47:22.344Z,5.15
2022-10-14T08:50:07.488Z,5.75
2022-10-14T08:53:01.416Z,4.80
2022-10-14T08:55:35.447Z,4.78
2022-10-14T08:58:23.232Z,5.68
2022-10-14T09:00:55.633Z,4.65
2022-10-14T09:03:36.941Z,4.35
2022-10-14T09:06:06.081Z,4.97
2022-10-14T09:08:45.601Z,5.07
2022-10-14T09:11:19.153Z,5.68
2022-10-14T09:13:49.473Z,5.32
2022-10-14T09:16:24.031Z,5.35
2022-10-14T09:18:54.767Z,4.47
2022-10-14T09:21:52.220Z,4.27
2022-10-14T09:24:22.245Z,4.80
2022-10-14T09:26:58.096Z,5.03
2022-10-14T09:29:25.752Z,4.20
2022-10-14T09:31:55.689Z,4.25
2022-10-14T09:34:40.909Z,3.67
2022-10-14T09:37:30.237Z,4.95
2022-10-14T09:40:06.817Z,3.85
2022-10-14T09:42:44.557Z,4.07
2022-10-14T09:45:20.402Z,4.80
2022-10-14T09:47:59.057Z,4.28
2022-10-14T09:50:49.853Z,3.92
2022-10-14T09:53:29.117Z,3.90
2022-10-14T09:56:01.033Z,3.42
2022-10-14T10:01:01.688Z,3.40
2022-10-14T10:03:35.504Z,3.90
2022-10-14T10:06:10.221Z,4.05
2022-10-14T10:08:42.190Z,3.47
2022-10-14T10:13:47.083Z,4.07
2022-10-14T10:16:27.309Z,3.92
2022-10-14T10:18:57.201Z,4.00
2022-10-14T10:21:29.759Z,3.10
2022-10-14T10:24:06.189Z,3.42
2022-10-14T10:26:35.148Z,3.08
2022-10-14T10:29:05.100Z,3.15
2022-10-14T10:31:37.622Z,3.33
2022-10-14T10:34:13.007Z,3.40
2022-10-14T10:36:51.761Z,2.92
2022-10-14T10:39:27.286Z,3.15
2022-10-14T10:42:09.064Z,3.17
2022-10-14T10:45:16.125Z,3.30
2022-10-14T10:47:56.812Z,3.80
2022-10-14T10:50:40.684Z,3.22
2022-10-14T10:53:13.846Z,3.50
2022-10-14T10:56:04.351Z,3.20
2022-10-14T10:59:07.130Z,3.08
2022-10-14T11:01:48.563Z,2.67
2022-10-14T11:04:21.521Z,2.95
2022-10-14T11:07:36.370Z,3.22
2022-10-14T11:10:42.808Z,2.92
2022-10-14T11:13:36.530Z,2.90
2022-10-14T11:16:07.695Z,3.03
2022-10-14T11:18:50.558Z,3.05
2022-10-14T11:21:56.465Z,3.03
2022-10-14T11:24:48.241Z,2.90
2022-10-14T11:27:24.766Z,1.92
2022-10-14T11:30:10.857Z,2.78
2022-10-14T11:32:38.256Z,2.72
2022-10-14T11:38:11.386Z,2.25
2022-10-14T11:41:07.856Z,2.80
2022-10-14T11:43:49.617Z,2.20
2022-10-14T11:46:27.297Z,1.95
2022-10-14T11:48:57.003Z,2.72
2022-10-14T11:51:36.084Z,1.98
2022-10-14T11:54:17.009Z,2.42
2022-10-14T11:57:24.460Z,2.33
2022-10-14T11:59:51.364Z,2.30
2022-10-14T12:02:40.688Z,2.42
2022-10-14T12:05:39.299Z,2.17
2022-10-14T12:08:35.864Z,2.55
2022-10-14T12:11:21.468Z,2.42
2022-10-14T12:13:54.231Z,2.78
2022-10-14T12:16:23.979Z,2.08
2022-10-14T12:18:59.365Z,2.50
2022-10-14T12:21:32.238Z,2.30
2022-10-14T12:24:15.668Z,2.30
2022-10-14T12:27:00.799Z,2.90
2022-10-14T12:29:47.858Z,2.60
2022-10-14T12:32:20.593Z,2.90
2022-10-14T12:35:01.764Z,2.88
2022-10-14T12:37:37.992Z,2.40
2022-10-14T12:40:07.388Z,2.60
2022-10-14T12:42:54.635Z,1.80
2022-10-14T12:45:26.096Z,2.30
2022-10-14T12:48:15.041Z,1.83
2022-10-14T12:50:43.851Z,2.10
2022-10-14T12:53:30.615Z,1.70
2022-10-14T12:56:04.212Z,1.77
2022-10-14T12:58:39.175Z,1.88
2022-10-14T13:01:08.245Z,1.70
2022-10-14T13:03:44.565Z,1.75
2022-10-14T13:06:32.262Z,1.63
2022-10-14T13:09:15.321Z,1.42
2022-10-14T13:11:42.817Z,1.65
2022-10-14T13:14:23.330Z,1.48
2022-10-14T13:17:01.148Z,1.58
2022-10-14T13:19:33.831Z,1.30
2022-10-14T13:22:33.167Z,1.48
2022-10-14T13:25:14.295Z,1.70
2022-10-14T13:27:55.101Z,1.42
2022-10-14T13:30:34.067Z,1.75
2022-10-14T13:33:22.524Z,1.50
2022-10-14T13:36:09.256Z,1.70
2022-10-14T13:38:38.149Z,1.50
2022-10-14T13:41:06.235Z,1.70
2022-10-14T13:43:42.265Z,2.00
2022-10-14T13:46:15.268Z,2.08
2022-10-14T13:48:48.484Z,1.73
2022-10-14T13:51:31.953Z,1.80
2022-10-14T13:54:19.833Z,1.45
2022-10-14T14:02:38.852Z,2.55
2022-10-14T14:05:06.040Z,1.83
2022-10-14T14:10:26.394Z,1.80
2022-10-14T14:12:55.467Z,12.38
2022-10-14T14:15:28.837Z,18.85
2022-10-14T14:17:58.047Z,5.82
2022-10-14T14:20:29.639Z,3.35
2022-10-14T14:23:01.043Z,2.30
2022-10-14T14:25:36.109Z,2.38
2022-10-14T14:28:14.719Z,2.17
2022-10-14T14:30:50.651Z,2.50
2022-10-14T14:33:38.910Z,3.30
2022-10-14T14:36:27.332Z,2.22
2022-10-14T14:39:05.728Z,2.03
2022-10-14T14:41:33.292Z,1.90
2022-10-14T14:44:24.529Z,2.38
2022-10-14T14:46:58.522Z,2.10
2022-10-14T14:49:40.676Z,3.13
2022-10-14T14:52:13.634Z,2.00
2022-10-14T14:54:47.888Z,2.33
2022-10-14T14:57:21.571Z,2.15
2022-10-14T14:59:53.733Z,2.10
2022-10-14T15:05:00.610Z,2.50
2022-10-14T15:07:27.809Z,2.78
2022-10-14T15:10:02.658Z,2.67
2022-10-14T15:12:39.230Z,4.80
2022-10-14T15:15:26.662Z,3.00
2022-10-14T15:18:14.636Z,2.70
2022-10-14T15:20:45.971Z,2.60
2022-10-14T15:23:37.950Z,3.63
2022-10-14T15:26:21.517Z,3.38
2022-10-14T15:29:08.324Z,3.22
2022-10-14T15:31:39.254Z,3.80
2022-10-14T15:34:14.178Z,3.47
2022-10-14T15:36:40.922Z,3.70
2022-10-14T15:39:16.704Z,3.72
2022-10-14T15:41:43.940Z,3.83
2022-10-14T15:44:17.600Z,3.70
2022-10-14T15:47:04.285Z,5.10
2022-10-14T15:49:35.993Z,4.45
2022-10-14T15:52:02.814Z,4.22
2022-10-14T15:54:29.469Z,5.13
2022-10-14T15:56:59.427Z,5.65
2022-10-14T15:59:26.237Z,5.40
2022-10-14T16:01:55.404Z,4.40
2022-10-14T16:04:24.827Z,3.63
2022-10-14T16:06:56.432Z,3.38
2022-10-14T16:09:28.596Z,4.05
2022-10-14T16:11:57.605Z,4.65
2022-10-14T16:14:27.740Z,3.72
2022-10-14T16:16:57.574Z,3.70
2022-10-14T16:19:24.318Z,4.82
2022-10-14T16:21:55.751Z,5.00
2022-10-14T16:24:26.134Z,3.60
2022-10-14T16:26:53.728Z,4.40
2022-10-14T16:29:23.212Z,5.82
2022-10-14T16:31:50.860Z,5.40
2022-10-14T16:34:20.935Z,6.45
2022-10-14T16:36:51.039Z,8.38
2022-10-14T16:39:23.627Z,10.15
2022-10-14T16:41:50.346Z,7.18
2022-10-14T16:44:27.161Z,5.03
2022-10-14T16:47:17.217Z,5.55
2022-10-14T16:49:49.152Z,4.32
2022-10-14T16:54:45.380Z,4.32
2022-10-14T16:57:12.292Z,4.38
2022-10-14T16:59:44.025Z,4.38
2022-10-14T17:02:16.554Z,5.15
2022-10-14T17:04:46.301Z,4.82
2022-10-14T17:07:14.772Z,4.97
2022-10-14T17:09:48.737Z,3.83
2022-10-14T17:12:15.460Z,4.63
2022-10-14T17:14:42.868Z,5.53
2022-10-14T17:17:13.108Z,5.32
2022-10-14T17:19:42.856Z,5.63
2022-10-14T17:22:11.698Z,7.20
2022-10-14T17:24:40.596Z,6.78
2022-10-14T17:27:07.283Z,5.30
2022-10-14T17:29:41.002Z,5.28
2022-10-14T17:32:09.863Z,5.90
2022-10-14T17:34:36.628Z,5.68
2022-10-14T17:39:42.067Z,6.43
2022-10-14T17:42:10.947Z,4.80
2022-10-14T17:44:43.468Z,5.10
2022-10-14T17:47:10.938Z,5.47
2022-10-14T17:49:37.642Z,6.60
2022-10-14T17:52:07.194Z,12.05
2022-10-14T17:54:36.275Z,8.43
2022-10-14T17:57:03.033Z,10.82
2022-10-14T17:59:29.790Z,10.95
2022-10-14T18:02:04.130Z,7.82
2022-10-14T18:04:32.726Z,5.72
2022-10-14T18:06:59.819Z,5.82
2022-10-14T18:09:26.608Z,5.45
2022-10-14T18:12:13.157Z,4.43
2022-10-14T18:14:42.445Z,3.50
2022-10-14T18:17:12.455Z,2.70
2022-10-14T18:19:45.072Z,3.10
2022-10-14T18:22:16.169Z,4.47
2022-10-14T18:24:44.235Z,3.20
2022-10-14T18:27:13.204Z,3.13
2022-10-14T18:29:42.364Z,2.75
2022-10-14T18:32:11.615Z,3.65
2022-10-14T18:34:38.304Z,5.25
2022-10-14T18:37:07.493Z,7.47
2022-10-14T18:39:39.283Z,7.60
2022-10-14T18:42:08.473Z,10.05
2022-10-14T18:44:39.910Z,6.38
2022-10-14T18:47:07.459Z,6.88
2022-10-14T18:49:39.920Z,5.47
2022-10-14T18:52:08.648Z,5.20
2022-10-14T18:54:38.366Z,3.90
2022-10-14T18:57:07.540Z,5.18
2022-10-14T18:59:36.821Z,5.50
2022-10-14T19:02:03.491Z,3.30
2022-10-14T19:04:32.489Z,3.15
2022-10-14T19:06:59.265Z,2.90
2022-10-14T19:09:29.979Z,2.28
2022-10-14T19:11:59.169Z,1.92
2022-10-14T19:14:31.678Z,1.95
2022-10-14T19:17:03.016Z,1.80
2022-10-14T19:19:29.773Z,1.10
2022-10-14T19:21:59.705Z,1.75
2022-10-14T19:24:26.550Z,1.27
2022-10-14T19:26:54.346Z,1.45
2022-10-14T19:29:28.362Z,1.23
2022-10-14T19:31:59.925Z,1.15
2022-10-14T19:34:29.234Z,1.42
2022-10-14T19:36:56.073Z,1.20
2022-10-14T19:39:27.359Z,1.52
2022-10-14T19:41:56.389Z,2.70
2022-10-14T19:44:23.143Z,1.90
2022-10-14T19:46:49.885Z,2.30
2022-10-14T19:49:21.644Z,2.70
2022-10-14T19:51:48.375Z,1.90
2022-10-14T19:54:15.201Z,2.10
2022-10-14T19:56:42.448Z,1.80
2022-10-14T19:59:09.802Z,1.90
2022-10-14T20:01:41.647Z,1.67
2022-10-14T20:04:08.395Z,2.15
2022-10-14T20:06:37.748Z,2.00
2022-10-14T20:09:07.569Z,2.33
2022-10-14T20:11:39.171Z,2.22
2022-10-14T20:14:05.957Z,2.70
2022-10-14T20:16:37.632Z,2.58
2022-10-14T20:19:06.979Z,2.25
2022-10-14T20:21:33.769Z,2.72
2022-10-14T20:24:02.914Z,2.30
2022-10-14T20:26:29.693Z,1.92
2022-10-14T20:28:56.587Z,1.67
2022-10-14T20:31:25.365Z,2.42
2022-10-14T20:33:52.103Z,2.60
2022-10-14T20:36:20.784Z,2.75
2022-10-14T20:38:48.395Z,2.28
2022-10-14T20:41:21.638Z,2.55
2022-10-14T20:43:51.493Z,2.42
2022-10-14T20:46:24.785Z,3.00
2022-10-14T20:48:58.436Z,2.83
2022-10-14T20:51:25.244Z,3.33
2022-10-14T20:54:02.572Z,3.08
2022-10-14T20:56:32.956Z,3.10
2022-10-14T20:59:03.713Z,3.03
2022-10-14T21:01:36.395Z,2.90
2022-10-14T21:04:10.190Z,2.30
2022-10-14T21:06:38.746Z,2.92
2022-10-14T21:09:05.704Z,2.47
2022-10-14T21:11:34.636Z,2.50
2022-10-14T21:14:01.627Z,2.95
2022-10-14T21:16:30.583Z,2.70
2022-10-14T21:19:07.643Z,2.85
2022-10-14T21:21:46.396Z,3.13
2022-10-14T21:24:17.491Z,2.05
2022-10-14T21:26:49.282Z,2.90
2022-10-14T21:29:22.517Z,3.28
2022-10-14T21:31:52.635Z,2.78
2022-10-14T21:34:19.744Z,2.83
2022-10-14T21:36:48.702Z,3.85
2022-10-14T21:39:19.304Z,3.33
2022-10-14T21:41:48.790Z,2.53
2022-10-14T21:44:21.372Z,2.95
2022-10-14T21:46:51.153Z,4.75
2022-10-14T21:49:20.019Z,3.55
2022-10-14T21:51:46.756Z,3.25
2022-10-14T21:54:14.251Z,3.35
2022-10-14T21:56:43.385Z,2.80
2022-10-14T21:59:11.661Z,3.30
2022-10-14T22:01:41.988Z,4.00
2022-10-14T22:04:10.482Z,3.40
2022-10-14T22:06:37.280Z,3.20
2022-10-14T22:09:06.458Z,3.85
2022-10-14T22:11:39.634Z,3.63
2022-10-14T22:14:10.028Z,2.67
2022-10-14T22:16:39.130Z,3.45
2022-10-14T22:19:07.279Z,2.70
2022-10-14T22:21:35.859Z,2.17
2022-10-14T22:26:44.578Z,2.53
2022-10-14T22:29:16.449Z,2.45
2022-10-14T22:31:45.614Z,1.98
2022-10-14T22:34:15.131Z,2.33
2022-10-14T22:36:44.492Z,2.00
2022-10-14T22:39:16.992Z,2.40
2022-10-14T22:41:43.697Z,2.28
2022-10-14T22:44:10.501Z,2.08
2022-10-14T22:46:41.276Z,3.08
2022-10-14T22:49:08.252Z,3.72
2022-10-14T22:51:40.165Z,3.47
2022-10-14T22:56:36.708Z,2.72
2022-10-14T22:59:11.026Z,2.42
2022-10-14T23:01:43.651Z,2.13
2022-10-14T23:04:13.664Z,2.67
2022-10-14T23:06:43.818Z,2.65
2022-10-14T23:09:12.931Z,1.88
2022-10-14T23:11:42.150Z,2.33
2022-10-14T23:14:08.922Z,3.15
2022-10-14T23:16:41.535Z,1.80
2022-10-14T23:19:15.358Z,2.30
2022-10-14T23:21:42.768Z,2.72
2022-10-14T23:24:13.614Z,2.00
2022-10-14T23:26:40.434Z,2.30
2022-10-14T23:29:11.614Z,2.33
2022-10-14T23:31:42.178Z,2.45
2022-10-14T23:34:17.132Z,2.05
2022-10-14T23:36:46.237Z,2.20
2022-10-14T23:39:15.399Z,2.38
2022-10-14T23:41:49.339Z,2.22
2022-10-14T23:44:18.447Z,2.20
2022-10-14T23:46:47.764Z,1.83
2022-10-14T23:49:25.667Z,1.70
2022-10-14T23:51:53.380Z,1.00
2022-10-14T23:54:20.119Z,1.70
2022-10-14T23:56:49.216Z,1.52
2022-10-14T23:59:18.374Z,2.40
